Arthur, ND

9:55 AM CST on December 19, 2014 (GMT -0600)
Home of the Absaraka Crows | Change Station
CLOSE
Current Station
Personal Weather Station
Location: Absaraka, ND
Elevation: 1066 ft
Nearby Weather Stations

Elev 1066 ft 46.98 °N, 97.39 °W | Updated 5 seconds ago

Overcast
Overcast
26.1 °F
Feels Like 20 °F
N
5.4
Wind Variable Wind from South
Gusts 7.6 mph

Today
High -- | Low -- °F
--% Chance of Precip.
Yesterday
High -- | Low -- °F
Precip. -- in
8:11 AM 4:40 PM
Waning Crescent, 7% visible
Pressure 30.13 in
Visibility 3.0 miles
Clouds Mostly Cloudy 600 ft
Overcast 1200 ft
Windchill 20 °F
Dew Point 24 °F
Humidity 93%
Rainfall 0.00 in
Snow Depth Not available.
UV 0 out of 12
Pollen .10 out of 12
Air Quality Not available.
Flu Activity Not available.
METAR KFAR 191453Z 16012KT 3SM BR BKN006 OVC012 M03/M05 A3008 RMK AO2 SLP203 T10331050 56005

More Conditions Fewer Conditions

Pressure 30.13 in
Visibility 3.0 miles
Clouds Mostly Cloudy 600 ft
Overcast 1200 ft
Windchill 20 °F
Dew Point 24 °F
Humidity 93%
Rainfall 0.00 in
Snow Depth Not available.
UV 0 out of 12
Pollen .10 out of 12
Air Quality Not available.
Flu Activity Not available.
METAR KFAR 191453Z 16012KT 3SM BR BKN006 OVC012 M03/M05 A3008 RMK AO2 SLP203 T10331050 56005

More Conditions Fewer Conditions

10-Day Weather Forecast

Almanac

Astronomy

Dec. 19, 2014 Rise Set
Actual Time
Civil Twilight
Nautical Twilight
Astronomical Twilight
Moon
Length of Visible Light
Length of Day
Tomorrow will be .
, % of the Moon is Illuminated

Today's Extremes

State Highs State Lows

Community

WunderPhotos

Upload Photos

1,778,997 photos uploaded!

WunderBlogs® & News

Nearby

Air Quality

  Air Quality AQ Index Pollutant
Not available.

Snow Depth

Station Depth Elevation

Earthquake Activity

City Distance Mag. Time & Date
Minimum magnitude displayed is 2.5.

Coastal Water Temperatures

Place Temperature

Nearby Weather Stations